sensor_id;sensor_type;location;lat;lon;timestamp;pressure;altitude;pressure_sealevel;temperature;humidity
32298;BME280;18782;48.984;8.548;2023-04-01T00:00:17;98565.69;;;11.05;72.86
32298;BME280;18782;48.984;8.548;2023-04-01T00:02:47;98580.31;;;10.97;72.16
32298;BME280;18782;48.984;8.548;2023-04-01T00:05:15;98562.28;;;10.97;72.58
32298;BME280;18782;48.984;8.548;2023-04-01T00:07:43;98565.72;;;10.91;72.74
32298;BME280;18782;48.984;8.548;2023-04-01T00:10:11;98583.72;;;10.96;73.47
32298;BME280;18782;48.984;8.548;2023-04-01T00:12:40;98568.28;;;10.93;73.75
32298;BME280;18782;48.984;8.548;2023-04-01T00:15:09;98597.47;;;10.92;73.87
32298;BME280;18782;48.984;8.548;2023-04-01T00:17:38;98570.00;;;10.86;73.51
32298;BME280;18782;48.984;8.548;2023-04-01T00:20:08;98580.28;;;10.85;74.12
32298;BME280;18782;48.984;8.548;2023-04-01T00:22:36;98557.09;;;10.85;74.15
32298;BME280;18782;48.984;8.548;2023-04-01T00:25:04;98565.69;;;10.81;73.65
32298;BME280;18782;48.984;8.548;2023-04-01T00:27:32;98570.00;;;10.82;73.73
32298;BME280;18782;48.984;8.548;2023-04-01T00:29:59;98567.41;;;10.82;73.97
32298;BME280;18782;48.984;8.548;2023-04-01T00:32:27;98557.97;;;10.84;73.90
32298;BME280;18782;48.984;8.548;2023-04-01T00:34:55;98566.56;;;10.86;73.80
32298;BME280;18782;48.984;8.548;2023-04-01T00:37:26;98571.72;;;10.92;74.02
32298;BME280;18782;48.984;8.548;2023-04-01T00:39:54;98574.28;;;10.86;73.62
32298;BME280;18782;48.984;8.548;2023-04-01T00:42:22;98573.41;;;10.90;73.68
32298;BME280;18782;48.984;8.548;2023-04-01T00:44:52;98569.97;;;10.91;73.89
32298;BME280;18782;48.984;8.548;2023-04-01T00:47:21;98561.41;;;10.92;73.48
32298;BME280;18782;48.984;8.548;2023-04-01T00:49:51;98551.97;;;10.94;73.61
32298;BME280;18782;48.984;8.548;2023-04-01T00:52:21;98557.97;;;10.93;73.95
32298;BME280;18782;48.984;8.548;2023-04-01T00:54:55;98561.41;;;10.89;73.62
32298;BME280;18782;48.984;8.548;2023-04-01T00:57:28;98571.69;;;10.89;74.03
32298;BME280;18782;48.984;8.548;2023-04-01T00:59:57;98559.69;;;10.91;74.17
32298;BME280;18782;48.984;8.548;2023-04-01T01:02:25;98576.00;;;10.87;73.95
32298;BME280;18782;48.984;8.548;2023-04-01T01:04:53;98564.84;;;10.88;72.63
32298;BME280;18782;48.984;8.548;2023-04-01T01:07:26;98560.56;;;10.87;73.17
32298;BME280;18782;48.984;8.548;2023-04-01T01:10:04;98547.69;;;10.87;73.72
32298;BME280;18782;48.984;8.548;2023-04-01T01:12:40;98557.97;;;10.90;73.38
32298;BME280;18782;48.984;8.548;2023-04-01T01:15:16;98569.13;;;10.90;73.09
32298;BME280;18782;48.984;8.548;2023-04-01T01:17:55;98551.13;;;10.92;72.62
32298;BME280;18782;48.984;8.548;2023-04-01T01:20:49;98563.97;;;10.89;73.37
32298;BME280;18782;48.984;8.548;2023-04-01T01:23:31;98550.25;;;10.90;73.24
32298;BME280;18782;48.984;8.548;2023-04-01T01:26:16;98568.28;;;10.91;73.90
32298;BME280;18782;48.984;8.548;2023-04-01T01:28:59;98557.97;;;10.90;73.48
32298;BME280;18782;48.984;8.548;2023-04-01T01:31:33;98575.97;;;10.85;74.58
32298;BME280;18782;48.984;8.548;2023-04-01T01:47:07;98551.09;;;10.74;73.96
32298;BME280;18782;48.984;8.548;2023-04-01T01:49:36;98542.50;;;10.71;74.04
32298;BME280;18782;48.984;8.548;2023-04-01T01:52:06;98552.78;;;10.68;74.96
32298;BME280;18782;48.984;8.548;2023-04-01T01:54:34;98550.22;;;10.68;75.09
32298;BME280;18782;48.984;8.548;2023-04-01T01:57:04;98545.09;;;10.71;75.67
32298;BME280;18782;48.984;8.548;2023-04-01T01:59:37;98548.50;;;10.74;74.63
32298;BME280;18782;48.984;8.548;2023-04-01T02:02:08;98540.78;;;10.72;74.14
32298;BME280;18782;48.984;8.548;2023-04-01T02:04:39;98539.09;;;10.73;73.54
32298;BME280;18782;48.984;8.548;2023-04-01T02:07:10;98575.13;;;10.73;74.59
32298;BME280;18782;48.984;8.548;2023-04-01T02:09:41;98546.78;;;10.50;75.69
32298;BME280;18782;48.984;8.548;2023-04-01T02:12:11;98536.47;;;10.47;76.50
32298;BME280;18782;48.984;8.548;2023-04-01T02:14:43;98545.03;;;10.44;77.00
32298;BME280;18782;48.984;8.548;2023-04-01T02:17:15;98543.31;;;10.48;74.88
32298;BME280;18782;48.984;8.548;2023-04-01T02:19:48;98548.47;;;10.46;74.11
32298;BME280;18782;48.984;8.548;2023-04-01T02:22:21;98533.91;;;10.51;74.05
32298;BME280;18782;48.984;8.548;2023-04-01T02:24:52;98530.47;;;10.52;73.48
32298;BME280;18782;48.984;8.548;2023-04-01T02:27:21;98542.50;;;10.56;72.21
32298;BME280;18782;48.984;8.548;2023-04-01T02:29:49;98533.06;;;10.57;72.33
32298;BME280;18782;48.984;8.548;2023-04-01T02:32:19;98555.34;;;10.56;72.34
32298;BME280;18782;48.984;8.548;2023-04-01T02:34:48;98538.19;;;10.58;72.77
32298;BME280;18782;48.984;8.548;2023-04-01T02:37:15;98534.75;;;10.52;72.29
32298;BME280;18782;48.984;8.548;2023-04-01T02:39:43;98535.63;;;10.61;71.85
32298;BME280;18782;48.984;8.548;2023-04-01T02:42:11;98545.06;;;10.64;71.24
32298;BME280;18782;48.984;8.548;2023-04-01T02:44:40;98553.66;;;10.63;71.10
32298;BME280;18782;48.984;8.548;2023-04-01T02:47:08;98532.22;;;10.65;71.10
32298;BME280;18782;48.984;8.548;2023-04-01T02:49:37;98544.22;;;10.66;70.29
32298;BME280;18782;48.984;8.548;2023-04-01T02:52:05;98527.06;;;10.68;70.15
32298;BME280;18782;48.984;8.548;2023-04-01T02:54:33;98524.47;;;10.70;70.18
32298;BME280;18782;48.984;8.548;2023-04-01T02:57:00;98530.50;;;10.70;69.46
32298;BME280;18782;48.984;8.548;2023-04-01T02:59:28;98554.50;;;10.69;69.14
32298;BME280;18782;48.984;8.548;2023-04-01T03:01:56;98542.50;;;10.71;69.82
32298;BME280;18782;48.984;8.548;2023-04-01T03:04:24;98536.50;;;10.74;69.81
32298;BME280;18782;48.984;8.548;2023-04-01T03:06:53;98541.66;;;10.65;70.31
32298;BME280;18782;48.984;8.548;2023-04-01T03:09:21;98538.19;;;10.64;70.77
32298;BME280;18782;48.984;8.548;2023-04-01T03:11:49;98545.06;;;10.58;71.38
32298;BME280;18782;48.984;8.548;2023-04-01T03:14:16;98538.22;;;10.55;72.05
32298;BME280;18782;48.984;8.548;2023-04-01T03:16:45;98535.63;;;10.55;72.17
32298;BME280;18782;48.984;8.548;2023-04-01T03:19:12;98537.34;;;10.50;72.34
32298;BME280;18782;48.984;8.548;2023-04-01T03:21:40;98532.19;;;10.53;72.07
32298;BME280;18782;48.984;8.548;2023-04-01T03:24:09;98539.91;;;10.52;71.63
32298;BME280;18782;48.984;8.548;2023-04-01T03:26:36;98540.75;;;10.52;71.75
32298;BME280;18782;48.984;8.548;2023-04-01T03:29:05;98539.06;;;10.51;72.30
32298;BME280;18782;48.984;8.548;2023-04-01T03:31:32;98556.19;;;10.54;71.75
32298;BME280;18782;48.984;8.548;2023-04-01T03:34:01;98544.19;;;10.57;71.60
32298;BME280;18782;48.984;8.548;2023-04-01T03:36:28;98548.50;;;10.60;71.30
32298;BME280;18782;48.984;8.548;2023-04-01T03:38:56;98535.66;;;10.60;70.86
32298;BME280;18782;48.984;8.548;2023-04-01T03:41:35;98567.34;;;10.57;70.70
32298;BME280;18782;48.984;8.548;2023-04-01T03:44:03;98540.75;;;10.54;70.86
32298;BME280;18782;48.984;8.548;2023-04-01T03:46:31;98536.50;;;10.62;71.23
32298;BME280;18782;48.984;8.548;2023-04-01T03:48:58;98548.47;;;10.54;70.84
32298;BME280;18782;48.984;8.548;2023-04-01T03:51:26;98537.34;;;10.56;71.38
32298;BME280;18782;48.984;8.548;2023-04-01T03:53:54;98555.34;;;10.58;71.38
32298;BME280;18782;48.984;8.548;2023-04-01T03:56:22;98531.31;;;10.59;71.08
32298;BME280;18782;48.984;8.548;2023-04-01T03:58:51;98534.75;;;10.58;71.18
32298;BME280;18782;48.984;8.548;2023-04-01T04:01:20;98548.50;;;10.67;71.11
32298;BME280;18782;48.984;8.548;2023-04-01T04:03:52;98533.06;;;10.61;71.18
32298;BME280;18782;48.984;8.548;2023-04-01T04:06:21;98534.78;;;10.55;71.12
32298;BME280;18782;48.984;8.548;2023-04-01T04:08:49;98526.19;;;10.62;71.37
32298;BME280;18782;48.984;8.548;2023-04-01T04:11:18;98530.47;;;10.58;70.83
32298;BME280;18782;48.984;8.548;2023-04-01T04:13:46;98525.34;;;10.61;70.78
32298;BME280;18782;48.984;8.548;2023-04-01T04:16:16;98549.38;;;10.60;70.95
32298;BME280;18782;48.984;8.548;2023-04-01T04:18:49;98525.34;;;10.66;70.61
32298;BME280;18782;48.984;8.548;2023-04-01T04:21:17;98534.78;;;10.62;71.22
32298;BME280;18782;48.984;8.548;2023-04-01T04:23:45;98527.06;;;10.68;70.34
32298;BME280;18782;48.984;8.548;2023-04-01T04:26:15;98522.78;;;10.70;69.98
32298;BME280;18782;48.984;8.548;2023-04-01T04:28:49;98521.94;;;10.71;70.18
32298;BME280;18782;48.984;8.548;2023-04-01T04:31:20;98519.34;;;10.68;70.92
32298;BME280;18782;48.984;8.548;2023-04-01T04:33:49;98520.22;;;10.70;70.18
32298;BME280;18782;48.984;8.548;2023-04-01T04:36:18;98515.06;;;10.74;70.30
32298;BME280;18782;48.984;8.548;2023-04-01T04:38:48;98517.63;;;10.72;69.96
32298;BME280;18782;48.984;8.548;2023-04-01T04:41:17;98512.47;;;10.75;69.84
32298;BME280;18782;48.984;8.548;2023-04-01T04:43:49;98508.19;;;10.73;69.49
32298;BME280;18782;48.984;8.548;2023-04-01T04:46:19;98520.19;;;10.80;69.75
32298;BME280;18782;48.984;8.548;2023-04-01T04:48:51;98507.34;;;10.77;69.32
32298;BME280;18782;48.984;8.548;2023-04-01T04:51:21;98503.06;;;10.76;69.66
32298;BME280;18782;48.984;8.548;2023-04-01T04:53:49;98511.63;;;10.75;69.36
32298;BME280;18782;48.984;8.548;2023-04-01T04:56:22;98507.34;;;10.72;69.63
32298;BME280;18782;48.984;8.548;2023-04-01T04:59:03;98497.88;;;10.69;69.75
32298;BME280;18782;48.984;8.548;2023-04-01T05:01:42;98502.19;;;10.74;70.03
32298;BME280;18782;48.984;8.548;2023-04-01T05:04:09;98502.19;;;10.77;69.22
32298;BME280;18782;48.984;8.548;2023-04-01T05:06:37;98502.19;;;10.77;69.67
32298;BME280;18782;48.984;8.548;2023-04-01T05:09:05;98497.91;;;10.76;69.76
32298;BME280;18782;48.984;8.548;2023-04-01T05:11:33;98485.91;;;10.81;68.98
32298;BME280;18782;48.984;8.548;2023-04-01T05:14:01;98491.03;;;10.75;69.09
32298;BME280;18782;48.984;8.548;2023-04-01T05:16:31;98494.47;;;10.77;69.55
32298;BME280;18782;48.984;8.548;2023-04-01T05:19:00;98494.50;;;10.81;68.73
32298;BME280;18782;48.984;8.548;2023-04-01T05:21:28;98500.47;;;10.77;68.65
32298;BME280;18782;48.984;8.548;2023-04-01T05:23:56;98492.75;;;10.79;69.01
32298;BME280;18782;48.984;8.548;2023-04-01T05:26:24;98487.59;;;10.79;69.31
32298;BME280;18782;48.984;8.548;2023-04-01T05:28:52;98486.72;;;10.75;68.81
32298;BME280;18782;48.984;8.548;2023-04-01T05:31:20;98493.59;;;10.73;69.38
32298;BME280;18782;48.984;8.548;2023-04-01T05:33:48;98486.75;;;10.78;69.95
32298;BME280;18782;48.984;8.548;2023-04-01T05:36:17;98485.03;;;10.71;69.53
32298;BME280;18782;48.984;8.548;2023-04-01T05:38:45;98482.47;;;10.79;68.83
32298;BME280;18782;48.984;8.548;2023-04-01T05:41:15;98479.03;;;10.72;69.41
32298;BME280;18782;48.984;8.548;2023-04-01T05:43:45;98491.03;;;10.75;69.92
32298;BME280;18782;48.984;8.548;2023-04-01T05:46:31;98493.63;;;10.76;69.99
32298;BME280;18782;48.984;8.548;2023-04-01T05:49:15;98493.63;;;10.71;70.65
32298;BME280;18782;48.984;8.548;2023-04-01T05:51:44;98509.88;;;10.64;70.78
32298;BME280;18782;48.984;8.548;2023-04-01T05:54:12;98503.03;;;10.68;72.41
32298;BME280;18782;48.984;8.548;2023-04-01T05:56:40;98492.75;;;10.66;73.71
32298;BME280;18782;48.984;8.548;2023-04-01T05:59:10;98497.88;;;10.51;74.66
32298;BME280;18782;48.984;8.548;2023-04-01T06:01:38;98504.72;;;10.43;74.94
32298;BME280;18782;48.984;8.548;2023-04-01T06:04:06;98503.00;;;10.36;76.10
32298;BME280;18782;48.984;8.548;2023-04-01T06:06:34;98503.78;;;10.23;76.85
32298;BME280;18782;48.984;8.548;2023-04-01T06:09:13;98500.38;;;10.28;78.97
32298;BME280;18782;48.984;8.548;2023-04-01T06:12:06;98509.81;;;10.28;77.22
32298;BME280;18782;48.984;8.548;2023-04-01T06:14:56;98507.25;;;10.25;78.74
32298;BME280;18782;48.984;8.548;2023-04-01T06:17:39;98502.94;;;10.20;79.74
32298;BME280;18782;48.984;8.548;2023-04-01T06:20:17;98494.34;;;10.15;81.28
32298;BME280;18782;48.984;8.548;2023-04-01T06:23:02;98506.31;;;10.04;81.25
32298;BME280;18782;48.984;8.548;2023-04-01T06:25:54;98507.19;;;10.14;81.51
32298;BME280;18782;48.984;8.548;2023-04-01T06:28:43;98500.28;;;10.01;82.62
32298;BME280;18782;48.984;8.548;2023-04-01T06:31:17;98509.75;;;10.09;81.09
32298;BME280;18782;48.984;8.548;2023-04-01T06:34:06;98506.34;;;10.19;81.91
32298;BME280;18782;48.984;8.548;2023-04-01T06:36:55;98527.84;;;10.32;81.80
32298;BME280;18782;48.984;8.548;2023-04-01T06:42:39;98509.03;;;10.53;80.27
32298;BME280;18782;48.984;8.548;2023-04-01T06:45:37;98515.84;;;10.43;79.28
32298;BME280;18782;48.984;8.548;2023-04-01T06:48:42;98521.81;;;10.27;79.11
32298;BME280;18782;48.984;8.548;2023-04-01T06:51:39;98522.72;;;10.37;79.18
32298;BME280;18782;48.984;8.548;2023-04-01T06:54:36;98521.00;;;10.30;79.11
32298;BME280;18782;48.984;8.548;2023-04-01T06:57:16;98515.00;;;10.38;79.64
32298;BME280;18782;48.984;8.548;2023-04-01T06:59:48;98521.84;;;10.38;79.06
32298;BME280;18782;48.984;8.548;2023-04-01T07:02:24;98527.88;;;10.43;79.07
32298;BME280;18782;48.984;8.548;2023-04-01T07:04:55;98509.84;;;10.25;79.57
32298;BME280;18782;48.984;8.548;2023-04-01T07:07:30;98523.56;;;10.30;79.99
32298;BME280;18782;48.984;8.548;2023-04-01T07:10:11;98524.34;;;10.15;79.79
32298;BME280;18782;48.984;8.548;2023-04-01T07:13:13;98511.50;;;10.13;81.04
32298;BME280;18782;48.984;8.548;2023-04-01T07:15:59;98518.34;;;10.20;80.85
32298;BME280;18782;48.984;8.548;2023-04-01T07:18:37;98528.69;;;10.27;81.42
32298;BME280;18782;48.984;8.548;2023-04-01T07:21:11;98524.41;;;10.24;80.66
32298;BME280;18782;48.984;8.548;2023-04-01T07:23:44;98539.84;;;10.32;81.36
32298;BME280;18782;48.984;8.548;2023-04-01T07:26:42;98529.53;;;10.26;81.94
32298;BME280;18782;48.984;8.548;2023-04-01T07:29:15;98521.03;;;10.45;82.89
32298;BME280;18782;48.984;8.548;2023-04-01T07:32:16;98533.78;;;10.14;83.68
32298;BME280;18782;48.984;8.548;2023-04-01T07:34:55;98532.91;;;10.15;84.15
32298;BME280;18782;48.984;8.548;2023-04-01T07:37:28;98545.72;;;10.03;85.09
32298;BME280;18782;48.984;8.548;2023-04-01T07:40:05;98552.56;;;10.01;85.85
32298;BME280;18782;48.984;8.548;2023-04-01T07:42:45;98543.19;;;10.09;85.46
32298;BME280;18782;48.984;8.548;2023-04-01T07:45:20;98566.31;;;10.12;85.03
32298;BME280;18782;48.984;8.548;2023-04-01T07:48:05;98551.75;;;10.11;86.06
32298;BME280;18782;48.984;8.548;2023-04-01T07:50:38;98568.03;;;10.10;86.68
32298;BME280;18782;48.984;8.548;2023-04-01T07:53:15;98553.41;;;9.97;88.34
32298;BME280;18782;48.984;8.548;2023-04-01T07:55:50;98560.22;;;9.89;87.88
32298;BME280;18782;48.984;8.548;2023-04-01T07:58:23;98555.03;;;9.77;89.15
32298;BME280;18782;48.984;8.548;2023-04-01T08:00:54;98550.63;;;9.60;89.40
32298;BME280;18782;48.984;8.548;2023-04-01T08:03:42;98540.34;;;9.57;88.87
32298;BME280;18782;48.984;8.548;2023-04-01T08:06:19;98552.34;;;9.58;89.82
32298;BME280;18782;48.984;8.548;2023-04-01T08:08:59;98548.91;;;9.56;88.80
32298;BME280;18782;48.984;8.548;2023-04-01T08:11:57;98542.88;;;9.54;88.87
32298;BME280;18782;48.984;8.548;2023-04-01T08:14:52;98548.94;;;9.62;88.72
32298;BME280;18782;48.984;8.548;2023-04-01T08:17:30;98543.88;;;9.75;88.54
32298;BME280;18782;48.984;8.548;2023-04-01T08:23:00;98547.31;;;9.80;88.14
32298;BME280;18782;48.984;8.548;2023-04-01T08:25:37;98544.78;;;9.90;86.73
32298;BME280;18782;48.984;8.548;2023-04-01T08:28:16;98543.22;;;10.22;87.97
32298;BME280;18782;48.984;8.548;2023-04-01T08:30:48;98556.19;;;10.40;85.77
32298;BME280;18782;48.984;8.548;2023-04-01T08:33:22;98546.72;;;10.36;83.54
32298;BME280;18782;48.984;8.548;2023-04-01T08:36:03;98576.75;;;10.49;84.44
32298;BME280;18782;48.984;8.548;2023-04-01T08:38:34;98559.63;;;10.45;83.24
32298;BME280;18782;48.984;8.548;2023-04-01T08:44:34;98569.09;;;10.74;81.15
32298;BME280;18782;48.984;8.548;2023-04-01T08:47:32;98548.50;;;10.74;82.46
32298;BME280;18782;48.984;8.548;2023-04-01T08:50:30;98553.66;;;10.84;83.21
32298;BME280;18782;48.984;8.548;2023-04-01T08:53:19;98551.13;;;11.04;84.19
32298;BME280;18782;48.984;8.548;2023-04-01T08:56:00;98560.53;;;10.96;83.83
32298;BME280;18782;48.984;8.548;2023-04-01T08:58:54;98572.56;;;10.83;82.87
32298;BME280;18782;48.984;8.548;2023-04-01T09:01:46;98578.47;;;10.41;82.76
32298;BME280;18782;48.984;8.548;2023-04-01T09:04:54;98551.06;;;10.64;85.65
32298;BME280;18782;48.984;8.548;2023-04-01T09:07:39;98560.50;;;10.75;83.68
32298;BME280;18782;48.984;8.548;2023-04-01T09:10:33;98592.31;;;10.92;82.82
32298;BME280;18782;48.984;8.548;2023-04-01T09:13:46;98560.56;;;11.07;82.07
32298;BME280;18782;48.984;8.548;2023-04-01T09:16:28;98562.28;;;10.92;81.49
32298;BME280;18782;48.984;8.548;2023-04-01T09:19:21;98566.56;;;10.93;81.02
32298;BME280;18782;48.984;8.548;2023-04-01T09:25:14;98582.84;;;11.06;81.58
32298;BME280;18782;48.984;8.548;2023-04-01T09:27:54;98591.44;;;11.01;79.66
32298;BME280;18782;48.984;8.548;2023-04-01T09:30:38;98573.44;;;11.14;81.29
32298;BME280;18782;48.984;8.548;2023-04-01T09:36:45;98579.44;;;11.01;81.41
32298;BME280;18782;48.984;8.548;2023-04-01T09:39:35;98568.28;;;11.02;82.04
32298;BME280;18782;48.984;8.548;2023-04-01T09:42:23;98569.16;;;11.07;80.74
32298;BME280;18782;48.984;8.548;2023-04-01T09:45:21;98577.72;;;11.08;80.34
32298;BME280;18782;48.984;8.548;2023-04-01T09:48:01;98583.72;;;10.87;81.60
32298;BME280;18782;48.984;8.548;2023-04-01T09:50:35;98572.56;;;10.92;82.27
32298;BME280;18782;48.984;8.548;2023-04-01T09:53:14;98582.00;;;11.04;81.14
32298;BME280;18782;48.984;8.548;2023-04-01T09:56:26;98595.72;;;10.88;81.05
32298;BME280;18782;48.984;8.548;2023-04-01T09:59:32;98594.88;;;10.98;79.04
32298;BME280;18782;48.984;8.548;2023-04-01T10:05:54;98570.88;;;11.23;79.46
32298;BME280;18782;48.984;8.548;2023-04-01T10:08:51;98586.31;;;11.36;78.09
32298;BME280;18782;48.984;8.548;2023-04-01T10:11:43;98591.47;;;11.31;78.14
32298;BME280;18782;48.984;8.548;2023-04-01T10:14:38;98594.03;;;10.99;78.28
32298;BME280;18782;48.984;8.548;2023-04-01T10:17:53;98609.50;;;11.14;79.06
32298;BME280;18782;48.984;8.548;2023-04-01T10:23:32;98594.03;;;11.30;80.72
32298;BME280;18782;48.984;8.548;2023-04-01T10:26:29;98602.63;;;11.44;79.40
32298;BME280;18782;48.984;8.548;2023-04-01T10:30:15;98617.25;;;11.28;79.09
32298;BME280;18782;48.984;8.548;2023-04-01T10:36:35;98606.06;;;11.29;81.44
32298;BME280;18782;48.984;8.548;2023-04-01T10:39:34;98597.47;;;11.35;81.29
32298;BME280;18782;48.984;8.548;2023-04-01T10:42:52;98619.78;;;11.20;82.41
32298;BME280;18782;48.984;8.548;2023-04-01T10:45:58;98637.81;;;11.07;81.80
32298;BME280;18782;48.984;8.548;2023-04-01T10:49:08;98614.59;;;10.85;85.04
32298;BME280;18782;48.984;8.548;2023-04-01T10:52:23;98614.59;;;10.96;83.38
32298;BME280;18782;48.984;8.548;2023-04-01T10:55:48;98638.59;;;10.80;82.36
32298;BME280;18782;48.984;8.548;2023-04-01T10:59:18;98608.59;;;10.94;82.66
32298;BME280;18782;48.984;8.548;2023-04-01T11:02:44;98617.19;;;11.11;79.80
32298;BME280;18782;48.984;8.548;2023-04-01T11:09:19;98624.97;;;11.43;79.63
32298;BME280;18782;48.984;8.548;2023-04-01T11:15:41;98616.34;;;11.67;79.77
32298;BME280;18782;48.984;8.548;2023-04-01T11:21:46;98631.84;;;11.55;81.72
32298;BME280;18782;48.984;8.548;2023-04-01T11:24:43;98627.53;;;11.25;82.93
32298;BME280;18782;48.984;8.548;2023-04-01T11:27:50;98640.41;;;11.17;83.05
32298;BME280;18782;48.984;8.548;2023-04-01T11:30:29;98646.41;;;11.15;84.47
32298;BME280;18782;48.984;8.548;2023-04-01T11:33:02;98630.03;;;10.90;83.94
32298;BME280;18782;48.984;8.548;2023-04-01T11:35:49;98633.50;;;11.10;86.10
32298;BME280;18782;48.984;8.548;2023-04-01T11:38:32;98642.13;;;11.34;85.09
32298;BME280;18782;48.984;8.548;2023-04-01T11:41:32;98657.59;;;11.28;83.25
32298;BME280;18782;48.984;8.548;2023-04-01T11:44:33;98648.13;;;11.16;82.68
32298;BME280;18782;48.984;8.548;2023-04-01T11:50:15;98654.97;;;11.00;86.54
32298;BME280;18782;48.984;8.548;2023-04-01T11:53:27;98642.97;;;11.13;86.21
32298;BME280;18782;48.984;8.548;2023-04-01T11:56:11;98641.25;;;11.03;85.08
32298;BME280;18782;48.984;8.548;2023-04-01T11:58:58;98648.13;;;11.19;83.18
32298;BME280;18782;48.984;8.548;2023-04-01T12:01:39;98647.28;;;11.46;83.99
32298;BME280;18782;48.984;8.548;2023-04-01T12:04:27;98670.47;;;11.28;81.70
32298;BME280;18782;48.984;8.548;2023-04-01T12:07:08;98656.72;;;11.36;83.15
32298;BME280;18782;48.984;8.548;2023-04-01T12:09:49;98672.19;;;11.61;83.10
32298;BME280;18782;48.984;8.548;2023-04-01T12:12:25;98664.47;;;11.44;82.14
32298;BME280;18782;48.984;8.548;2023-04-01T12:15:11;98681.63;;;11.37;83.12
32298;BME280;18782;48.984;8.548;2023-04-01T12:17:46;98701.34;;;11.11;84.31
32298;BME280;18782;48.984;8.548;2023-04-01T12:20:34;98675.59;;;11.26;85.74
32298;BME280;18782;48.984;8.548;2023-04-01T12:23:15;98673.03;;;11.12;85.41
32298;BME280;18782;48.984;8.548;2023-04-01T12:26:10;98679.00;;;10.97;84.62
32298;BME280;18782;48.984;8.548;2023-04-01T12:28:47;98679.78;;;10.80;86.24
32298;BME280;18782;48.984;8.548;2023-04-01T12:31:33;98665.22;;;10.79;88.34
32298;BME280;18782;48.984;8.548;2023-04-01T12:34:21;98683.16;;;10.62;87.78
32298;BME280;18782;48.984;8.548;2023-04-01T12:36:59;98678.06;;;10.73;87.01
32298;BME280;18782;48.984;8.548;2023-04-01T12:39:51;98688.25;;;10.48;85.17
32298;BME280;18782;48.984;8.548;2023-04-01T12:42:35;98692.56;;;10.58;86.76
32298;BME280;18782;48.984;8.548;2023-04-01T12:45:22;98683.09;;;10.45;87.38
32298;BME280;18782;48.984;8.548;2023-04-01T12:48:35;98687.41;;;10.52;87.56
32298;BME280;18782;48.984;8.548;2023-04-01T12:51:29;98705.31;;;10.31;87.79
32298;BME280;18782;48.984;8.548;2023-04-01T12:57:14;98703.59;;;10.31;90.28
32298;BME280;18782;48.984;8.548;2023-04-01T13:00:03;98702.66;;;10.23;89.77
32298;BME280;18782;48.984;8.548;2023-04-01T13:02:42;98704.25;;;10.07;91.21
32298;BME280;18782;48.984;8.548;2023-04-01T13:05:50;98711.97;;;10.04;91.46
32298;BME280;18782;48.984;8.548;2023-04-01T13:08:33;98702.66;;;10.23;93.28
32298;BME280;18782;48.984;8.548;2023-04-01T13:11:09;98706.91;;;10.13;91.09
32298;BME280;18782;48.984;8.548;2023-04-01T13:16:50;98709.50;;;10.21;91.83
32298;BME280;18782;48.984;8.548;2023-04-01T13:19:24;98719.91;;;10.36;92.36
32298;BME280;18782;48.984;8.548;2023-04-01T13:21:58;98716.50;;;10.43;92.34
32298;BME280;18782;48.984;8.548;2023-04-01T13:24:37;98721.59;;;10.31;90.85
32298;BME280;18782;48.984;8.548;2023-04-01T13:27:14;98722.53;;;10.47;91.09
32298;BME280;18782;48.984;8.548;2023-04-01T13:29:53;98719.25;;;10.73;88.79
32298;BME280;18782;48.984;8.548;2023-04-01T13:32:29;98727.88;;;10.87;91.03
32298;BME280;18782;48.984;8.548;2023-04-01T13:35:18;98721.81;;;10.80;88.54
32298;BME280;18782;48.984;8.548;2023-04-01T13:38:03;98713.31;;;10.93;88.06
32298;BME280;18782;48.984;8.548;2023-04-01T13:40:45;98726.13;;;10.78;87.74
32298;BME280;18782;48.984;8.548;2023-04-01T13:43:31;98741.47;;;10.58;87.96
32298;BME280;18782;48.984;8.548;2023-04-01T13:46:26;98708.09;;;10.80;89.81
32298;BME280;18782;48.984;8.548;2023-04-01T13:49:15;98721.84;;;10.82;88.56
32298;BME280;18782;48.984;8.548;2023-04-01T13:51:59;98715.00;;;10.90;89.31
32298;BME280;18782;48.984;8.548;2023-04-01T13:55:05;98732.28;;;11.23;89.37
32298;BME280;18782;48.984;8.548;2023-04-01T13:57:52;98730.56;;;11.25;84.78
32298;BME280;18782;48.984;8.548;2023-04-01T14:00:35;98716.78;;;11.11;86.89
32298;BME280;18782;48.984;8.548;2023-04-01T14:03:26;98727.94;;;11.11;86.04
32298;BME280;18782;48.984;8.548;2023-04-01T14:06:30;98731.47;;;11.56;84.03
32298;BME280;18782;48.984;8.548;2023-04-01T14:09:18;98729.72;;;11.54;83.18
32298;BME280;18782;48.984;8.548;2023-04-01T14:11:56;98731.50;;;12.05;81.59
32298;BME280;18782;48.984;8.548;2023-04-01T14:14:39;98740.91;;;12.31;80.91
32298;BME280;18782;48.984;8.548;2023-04-01T14:17:19;98737.53;;;12.04;81.55
32298;BME280;18782;48.984;8.548;2023-04-01T14:20:22;98727.19;;;12.09;80.78
32298;BME280;18782;48.984;8.548;2023-04-01T14:23:06;98728.06;;;11.88;81.08
32298;BME280;18782;48.984;8.548;2023-04-01T14:25:54;98740.09;;;11.99;81.47
32298;BME280;18782;48.984;8.548;2023-04-01T14:28:31;98733.19;;;11.63;82.48
32298;BME280;18782;48.984;8.548;2023-04-01T14:31:22;98735.78;;;11.62;84.90
32298;BME280;18782;48.984;8.548;2023-04-01T14:34:00;98734.06;;;11.67;83.95
32298;BME280;18782;48.984;8.548;2023-04-01T14:36:49;98731.44;;;11.38;85.00
32298;BME280;18782;48.984;8.548;2023-04-01T14:39:29;98745.22;;;11.55;84.68
32298;BME280;18782;48.984;8.548;2023-04-01T14:42:13;98733.19;;;11.60;83.81
32298;BME280;18782;48.984;8.548;2023-04-01T14:45:02;98736.63;;;11.44;84.53
32298;BME280;18782;48.984;8.548;2023-04-01T14:47:44;98738.34;;;11.45;85.09
32298;BME280;18782;48.984;8.548;2023-04-01T14:50:16;98734.03;;;11.42;83.95
32298;BME280;18782;48.984;8.548;2023-04-01T14:52:55;98740.88;;;11.37;84.77
32298;BME280;18782;48.984;8.548;2023-04-01T14:55:30;98743.44;;;11.23;83.41
32298;BME280;18782;48.984;8.548;2023-04-01T14:58:10;98734.00;;;11.29;83.86
32298;BME280;18782;48.984;8.548;2023-04-01T15:00:53;98745.25;;;11.64;82.07
32298;BME280;18782;48.984;8.548;2023-04-01T15:03:26;98731.41;;;12.60;77.69